JST105 YBBN-NCRG
Flight info
| Callsign | JST105 |
|---|---|
| Flight time | N/A |
| Altitude | 33000 |
| Route | GUMKI Y98 BONEY G329 NF R582 KADEN/N0456F350 R582 OMBOL ANIVA1A |
| Aircraft | A21N/M-SDE2E3FGHIJ1RWXY/LB1 |
Departure
| Time | 2026-05-05 12:25 |
|---|---|
| Airport | Brisbane International Airport (YBBN) |
Arrival
| Time | N/A |
|---|---|
| Airport | Rarotonga International Airport (NCRG) |
| Time | Latitude | Longitude | Altitude | Speed | Heading |
|---|---|---|---|---|---|
| 2026-05-05 11:16 | -27.40227 | 153.11199 | 23 ft | 0 kts | 297° |
| 2026-05-05 12:16 | -27.40234 | 153.11218 | 23 ft | 4 kts | 278° |
| 2026-05-05 12:16 | -27.40236 | 153.11248 | 23 ft | 4 kts | 288° |
| 2026-05-05 12:16 | -27.40249 | 153.11265 | 23 ft | 4 kts | 330° |
| 2026-05-05 12:16 | -27.40273 | 153.11272 | 25 ft | 4 kts | 10° |
| 2026-05-05 12:17 | -27.40297 | 153.11262 | 25 ft | 2 kts | 31° |
| 2026-05-05 12:17 | -27.40299 | 153.11261 | 25 ft | 0 kts | 31° |
| 2026-05-05 12:20 | -27.40294 | 153.11264 | 26 ft | 3 kts | 31° |
| 2026-05-05 12:20 | -27.40245 | 153.11297 | 23 ft | 11 kts | 30° |
| 2026-05-05 12:20 | -27.40188 | 153.11352 | 25 ft | 11 kts | 63° |
| 2026-05-05 12:20 | -27.40212 | 153.11436 | 23 ft | 12 kts | 120° |
| 2026-05-05 12:21 | -27.40251 | 153.11518 | 23 ft | 12 kts | 116° |
| 2026-05-05 12:21 | -27.40287 | 153.11600 | 23 ft | 5 kts | 116° |
| 2026-05-05 12:21 | -27.40306 | 153.11637 | 24 ft | 6 kts | 119° |
| 2026-05-05 12:21 | -27.40312 | 153.11656 | 24 ft | 0 kts | 108° |
| 2026-05-05 12:23 | -27.40313 | 153.11658 | 24 ft | 3 kts | 108° |
| 2026-05-05 12:23 | -27.40326 | 153.11724 | 24 ft | 11 kts | 89° |
| 2026-05-05 12:23 | -27.40300 | 153.11810 | 25 ft | 12 kts | 62° |
| 2026-05-05 12:23 | -27.40251 | 153.11840 | 25 ft | 0 kts | 27° |
| 2026-05-05 12:24 | -27.40203 | 153.11869 | 24 ft | 32 kts | 27° |
| 2026-05-05 12:24 | -27.39783 | 153.12109 | 27 ft | 102 kts | 27° |
| 2026-05-05 12:25 | -27.38970 | 153.12575 | 25 ft | 159 kts | 26° |
| 2026-05-05 12:25 | -27.37900 | 153.13193 | 153 ft | 188 kts | 28° |
| 2026-05-05 12:25 | -27.36767 | 153.13852 | 853 ft | 183 kts | 30° |
| 2026-05-05 12:25 | -27.35802 | 153.14793 | 1307 ft | 194 kts | 56° |
| 2026-05-05 12:26 | -27.34910 | 153.16022 | 1687 ft | 211 kts | 49° |
| 2026-05-05 12:26 | -27.33849 | 153.17299 | 2044 ft | 232 kts | 49° |
| 2026-05-05 12:26 | -27.32716 | 153.18667 | 2440 ft | 250 kts | 49° |
| 2026-05-05 12:26 | -27.31516 | 153.20120 | 3088 ft | 256 kts | 49° |
| 2026-05-05 12:27 | -27.30294 | 153.21600 | 3717 ft | 265 kts | 49° |
| 2026-05-05 12:27 | -27.29085 | 153.23256 | 4029 ft | 283 kts | 62° |
| 2026-05-05 12:27 | -27.28502 | 153.25407 | 4282 ft | 297 kts | 86° |
| 2026-05-05 12:27 | -27.28404 | 153.27791 | 4552 ft | 315 kts | 90° |
| 2026-05-05 12:28 | -27.28351 | 153.30318 | 4801 ft | 331 kts | 90° |
| 2026-05-05 12:28 | -27.28272 | 153.32950 | 5129 ft | 342 kts | 89° |
| 2026-05-05 12:28 | -27.28172 | 153.35631 | 5618 ft | 346 kts | 89° |
| 2026-05-05 12:28 | -27.28059 | 153.38340 | 6159 ft | 348 kts | 89° |
| 2026-05-05 12:29 | -27.27820 | 153.41066 | 6684 ft | 353 kts | 80° |
| 2026-05-05 12:29 | -27.27273 | 153.43770 | 7243 ft | 356 kts | 78° |
| 2026-05-05 12:29 | -27.26710 | 153.46493 | 7847 ft | 360 kts | 78° |
| 2026-05-05 12:29 | -27.26146 | 153.49248 | 8498 ft | 363 kts | 78° |
| 2026-05-05 12:30 | -27.25585 | 153.52028 | 9150 ft | 367 kts | 78° |
| 2026-05-05 12:30 | -27.25018 | 153.54837 | 9799 ft | 370 kts | 78° |
| 2026-05-05 12:30 | -27.24444 | 153.57677 | 10398 ft | 374 kts | 78° |
| 2026-05-05 12:30 | -27.23878 | 153.60485 | 10937 ft | 379 kts | 77° |
| 2026-05-05 12:31 | -27.23294 | 153.63387 | 11473 ft | 384 kts | 77° |
| 2026-05-05 12:31 | -27.22697 | 153.66332 | 12007 ft | 388 kts | 76° |
| 2026-05-05 12:31 | -27.22094 | 153.69296 | 12521 ft | 393 kts | 76° |
| 2026-05-05 12:31 | -27.21483 | 153.72313 | 13018 ft | 398 kts | 75° |
| 2026-05-05 12:32 | -27.20862 | 153.75359 | 13488 ft | 403 kts | 75° |
| 2026-05-05 12:32 | -27.20234 | 153.78440 | 13937 ft | 407 kts | 74° |
| 2026-05-05 12:32 | -27.19598 | 153.81553 | 14331 ft | 412 kts | 74° |
| 2026-05-05 12:32 | -27.19118 | 153.84749 | 14705 ft | 419 kts | 84° |
| 2026-05-05 12:33 | -27.19348 | 153.87991 | 15064 ft | 427 kts | 101° |
| 2026-05-05 12:33 | -27.20251 | 153.91186 | 15440 ft | 433 kts | 108° |
| 2026-05-05 12:33 | -27.21291 | 153.94375 | 15805 ft | 437 kts | 109° |
| 2026-05-05 12:33 | -27.22347 | 153.97643 | 16168 ft | 441 kts | 108° |
| 2026-05-05 12:34 | -27.23366 | 154.00868 | 16526 ft | 445 kts | 108° |
| 2026-05-05 12:34 | -27.24395 | 154.04160 | 16890 ft | 449 kts | 108° |
| 2026-05-05 12:34 | -27.25431 | 154.07492 | 17240 ft | 453 kts | 108° |
| 2026-05-05 12:34 | -27.26474 | 154.10853 | 17599 ft | 457 kts | 108° |
| 2026-05-05 12:35 | -27.27529 | 154.14242 | 17965 ft | 461 kts | 108° |
| 2026-05-05 12:35 | -27.28593 | 154.17660 | 18315 ft | 465 kts | 108° |
| 2026-05-05 12:35 | -27.29664 | 154.21107 | 18643 ft | 468 kts | 108° |
| 2026-05-05 12:35 | -27.30739 | 154.24577 | 18989 ft | 471 kts | 108° |
| 2026-05-05 12:36 | -27.31811 | 154.28063 | 19330 ft | 473 kts | 108° |
| 2026-05-05 12:36 | -27.32892 | 154.31573 | 19678 ft | 476 kts | 108° |
| 2026-05-05 12:36 | -27.33986 | 154.35094 | 20040 ft | 478 kts | 108° |
| 2026-05-05 12:36 | -27.35081 | 154.38629 | 20392 ft | 481 kts | 108° |
| 2026-05-05 12:37 | -27.36179 | 154.42197 | 20752 ft | 483 kts | 108° |
| 2026-05-05 12:37 | -27.37274 | 154.45780 | 21124 ft | 486 kts | 108° |
| 2026-05-05 12:37 | -27.38379 | 154.49379 | 21476 ft | 489 kts | 108° |
| 2026-05-05 12:37 | -27.39489 | 154.53005 | 21854 ft | 492 kts | 107° |
| 2026-05-05 12:38 | -27.40604 | 154.56651 | 22222 ft | 494 kts | 107° |
| 2026-05-05 12:38 | -27.41731 | 154.60320 | 22568 ft | 498 kts | 108° |
| 2026-05-05 12:38 | -27.42864 | 154.64022 | 22919 ft | 501 kts | 107° |
| 2026-05-05 12:38 | -27.43999 | 154.67739 | 23267 ft | 504 kts | 107° |
| 2026-05-05 12:39 | -27.45138 | 154.71486 | 23596 ft | 507 kts | 107° |
| 2026-05-05 12:39 | -27.46283 | 154.75250 | 23872 ft | 510 kts | 107° |
| 2026-05-05 12:39 | -27.47432 | 154.79034 | 24148 ft | 512 kts | 107° |
| 2026-05-05 12:39 | -27.48589 | 154.82839 | 24424 ft | 514 kts | 107° |
| 2026-05-05 12:40 | -27.49750 | 154.86661 | 24690 ft | 517 kts | 107° |
| 2026-05-05 12:40 | -27.50900 | 154.90452 | 24957 ft | 519 kts | 107° |
| 2026-05-05 12:40 | -27.52085 | 154.94360 | 25228 ft | 521 kts | 107° |
| 2026-05-05 12:40 | -27.53243 | 154.98180 | 25497 ft | 523 kts | 107° |
| 2026-05-05 12:41 | -27.54419 | 155.02067 | 25751 ft | 526 kts | 107° |
| 2026-05-05 12:41 | -27.55605 | 155.05970 | 26019 ft | 527 kts | 107° |
| 2026-05-05 12:41 | -27.56786 | 155.09885 | 26276 ft | 529 kts | 107° |
| 2026-05-05 12:41 | -27.57974 | 155.13816 | 26529 ft | 531 kts | 107° |
| 2026-05-05 12:42 | -27.59162 | 155.17761 | 26774 ft | 532 kts | 107° |
| 2026-05-05 12:42 | -27.60346 | 155.21719 | 27064 ft | 532 kts | 107° |
| 2026-05-05 12:42 | -27.61525 | 155.25674 | 27379 ft | 532 kts | 107° |
| 2026-05-05 12:42 | -27.62699 | 155.29618 | 27708 ft | 531 kts | 107° |
| 2026-05-05 12:43 | -27.63882 | 155.33562 | 28026 ft | 530 kts | 107° |
| 2026-05-05 12:43 | -27.65062 | 155.37497 | 28331 ft | 529 kts | 107° |
| 2026-05-05 12:43 | -27.66230 | 155.41431 | 28631 ft | 529 kts | 107° |
| 2026-05-05 12:43 | -27.67392 | 155.45361 | 28946 ft | 528 kts | 107° |
| 2026-05-05 12:44 | -27.68555 | 155.49285 | 29255 ft | 527 kts | 107° |
| 2026-05-05 12:44 | -27.69720 | 155.53208 | 29548 ft | 526 kts | 107° |
| 2026-05-05 12:44 | -27.70883 | 155.57116 | 29845 ft | 526 kts | 107° |
| 2026-05-05 12:44 | -27.72044 | 155.61023 | 30138 ft | 525 kts | 108° |
| 2026-05-05 12:45 | -27.73203 | 155.64931 | 30382 ft | 525 kts | 107° |
| 2026-05-05 12:45 | -27.74360 | 155.68834 | 30596 ft | 525 kts | 107° |
| 2026-05-05 12:45 | -27.75520 | 155.72750 | 30793 ft | 525 kts | 107° |
| 2026-05-05 12:45 | -27.76679 | 155.76668 | 30983 ft | 526 kts | 107° |
| 2026-05-05 12:46 | -27.77835 | 155.80585 | 31178 ft | 526 kts | 107° |
| 2026-05-05 12:46 | -27.78989 | 155.84500 | 31363 ft | 527 kts | 107° |
| 2026-05-05 12:46 | -27.80132 | 155.88380 | 31554 ft | 527 kts | 107° |
| 2026-05-05 12:46 | -27.81089 | 155.92360 | 31720 ft | 526 kts | 98° |
| 2026-05-05 12:47 | -27.81713 | 155.96427 | 31907 ft | 525 kts | 97° |
| 2026-05-05 12:47 | -27.82306 | 156.00507 | 32100 ft | 525 kts | 96° |
| 2026-05-05 12:47 | -27.82898 | 156.04579 | 32271 ft | 526 kts | 97° |
| 2026-05-05 12:47 | -27.83499 | 156.08652 | 32446 ft | 526 kts | 97° |
| 2026-05-05 12:48 | -27.84114 | 156.12731 | 32607 ft | 527 kts | 97° |
| 2026-05-05 12:48 | -27.84724 | 156.16818 | 32770 ft | 527 kts | 97° |
| 2026-05-05 12:48 | -27.85322 | 156.20899 | 32926 ft | 527 kts | 96° |
| 2026-05-05 12:48 | -27.85914 | 156.24993 | 33076 ft | 528 kts | 96° |
| 2026-05-05 12:49 | -27.87110 | 156.33204 | 33142 ft | 530 kts | 96° |
| 2026-05-05 12:49 | -27.88321 | 156.41424 | 33112 ft | 530 kts | 96° |
| 2026-05-05 12:50 | -27.89521 | 156.49648 | 33099 ft | 531 kts | 96° |
| 2026-05-05 12:50 | -27.90703 | 156.57887 | 33097 ft | 531 kts | 96° |
| 2026-05-05 12:51 | -27.91683 | 156.64735 | 33099 ft | 531 kts | 96° |
| 2026-05-05 12:51 | -27.92937 | 156.73603 | 33090 ft | 532 kts | 96° |
| 2026-05-05 12:52 | -27.93902 | 156.80411 | 33097 ft | 532 kts | 97° |
| 2026-05-05 12:52 | -27.95225 | 156.89705 | 33098 ft | 531 kts | 96° |
| 2026-05-05 12:53 | -27.96382 | 156.97948 | 33101 ft | 531 kts | 96° |
| 2026-05-05 12:53 | -27.97541 | 157.06207 | 33108 ft | 531 kts | 96° |